Terminal Aerodrome Forecast
Issued by NWS

Home | Current Version | Previous Version | Text Only | Print | Product List | Glossary On
Versions: 1 2 3 4 5 6 7 8 9 10 11 12 13 14 15 16 17 18
381
FTUS45 KMSO 231938 AAA
TAFSMN
TAF AMD
KSMN 231938Z 2320/2418 15004KT 3SM BR VCFG SCT006
     FM232100 04010KT 6SM BR VCSH BKN060
      AMD LTD TO CLD VIS AND WIND=

USA.gov is the U.S. government's official web portal to all federal, state and local government web resources and services.